Time;durP1;ratioP1;P1;durP2;ratioP2;P2;SDS_P1;SDS_P2;PMS_P1;PMS_P2;Temp;Humidity;BMP_temperature;BMP_pressure;BME280_temperature;BME280_humidity;BME280_pressure;Samples;Min_cycle;Max_cycle;Signal;HPM_P1;HPM_P2
2023/01/09 00:01:27;;;;;;;8.07;1.20;;;;;;;4.80;100.00;97827.50;5040817;28;20112;-80
2023/01/09 00:03:53;;;;;;;16.95;2.22;;;;;;;4.76;100.00;97821.78;5048296;28;20418;-80
2023/01/09 00:06:21;;;;;;;4.97;1.10;;;;;;;4.75;100.00;97830.63;5042962;28;20047;-80
2023/01/09 00:08:48;;;;;;;9.63;1.92;;;;;;;4.78;100.00;97837.34;5042647;28;20052;-79
2023/01/09 00:11:14;;;;;;;12.55;2.17;;;;;;;4.76;100.00;97828.84;5058329;28;20033;-80
2023/01/09 00:13:46;;;;;;;6.28;1.33;;;;;;;4.76;100.00;97827.03;5045685;28;20051;-80
2023/01/09 00:16:12;;;;;;;5.75;1.05;;;;;;;4.75;100.00;97830.63;5059037;28;20549;-80
2023/01/09 00:18:40;;;;;;;5.72;0.70;;;;;;;4.72;100.00;97837.03;5039024;28;20087;-80
2023/01/09 00:21:08;;;;;;;4.88;1.08;;;;;;;4.72;100.00;97844.06;5061861;28;20033;-80
2023/01/09 00:23:39;;;;;;;4.32;0.77;;;;;;;4.70;100.00;97851.25;5047698;28;20046;-80
2023/01/09 00:26:11;;;;;;;4.70;0.95;;;;;;;4.73;100.00;97861.38;5060368;28;20608;-80
2023/01/09 00:28:39;;;;;;;5.13;1.27;;;;;;;4.70;100.00;97848.66;5059375;28;20032;-79
2023/01/09 00:31:07;;;;;;;8.15;0.80;;;;;;;4.68;100.00;97863.72;5059852;28;20199;-79
2023/01/09 00:33:40;;;;;;;8.00;1.98;;;;;;;4.70;100.00;97864.34;5046751;28;20119;-80
2023/01/09 00:36:08;;;;;;;5.05;0.70;;;;;;;4.67;100.00;97870.75;5047388;28;20125;-79
2023/01/09 00:38:36;;;;;;;7.10;0.90;;;;;;;4.66;100.00;97857.84;5062902;28;20066;-78
2023/01/09 00:41:07;;;;;;;6.97;0.90;;;;;;;4.70;100.00;97874.81;5036024;28;20128;-79
2023/01/09 00:43:39;;;;;;;6.97;0.82;;;;;;;4.67;100.00;97886.44;5032223;28;20032;-80
2023/01/09 00:46:07;;;;;;;7.35;1.05;;;;;;;4.66;100.00;97879.59;5074890;28;20047;-80
2023/01/09 00:48:37;;;;;;;4.15;0.60;;;;;;;4.67;100.00;97875.16;5043461;28;20086;-79
2023/01/09 00:51:04;;;;;;;6.25;0.63;;;;;;;4.67;100.00;97870.75;5025727;28;20399;-80
2023/01/09 00:53:34;;;;;;;5.03;0.68;;;;;;;4.71;100.00;97879.88;5049591;28;20029;-79
2023/01/09 00:56:07;;;;;;;2.33;0.40;;;;;;;4.69;100.00;97881.03;5041712;28;20033;-80
2023/01/09 00:58:35;;;;;;;3.00;0.60;;;;;;;4.67;100.00;97883.84;5058212;28;20021;-79
2023/01/09 01:01:01;;;;;;;4.40;0.52;;;;;;;4.66;100.00;97894.47;5041668;28;20036;-80
2023/01/09 01:03:28;;;;;;;2.80;0.55;;;;;;;4.68;100.00;97908.22;5060955;28;20036;-80
2023/01/09 01:08:38;;;;;;;1.50;0.40;;;;;;;4.67;100.00;97911.78;5046046;28;20369;-81
2023/01/09 01:11:08;;;;;;;2.83;0.30;;;;;;;4.70;100.00;97921.91;5059236;28;20082;-80
2023/01/09 01:13:34;;;;;;;5.80;0.43;;;;;;;4.67;100.00;97930.09;5038983;28;20044;-80
2023/01/09 01:16:12;;;;;;;1.92;0.32;;;;;;;4.69;100.00;97934.19;5038282;28;20110;-80
2023/01/09 01:18:40;;;;;;;2.70;0.40;;;;;;;4.69;100.00;97936.00;5047165;28;20028;-80
2023/01/09 01:21:10;;;;;;;1.92;0.30;;;;;;;4.69;100.00;97938.59;5043301;28;20036;-79
2023/01/09 01:23:36;;;;;;;2.15;0.45;;;;;;;4.68;100.00;97947.44;5060536;28;20032;-80
2023/01/09 01:26:05;;;;;;;0.93;0.25;;;;;;;4.69;100.00;97949.91;5079026;28;20035;-82
2023/01/09 01:28:31;;;;;;;2.85;0.28;;;;;;;4.68;100.00;97963.16;5044056;28;20103;-81
2023/01/09 01:30:59;;;;;;;1.65;0.30;;;;;;;4.69;100.00;97963.00;5029841;28;20415;-80
2023/01/09 01:33:26;;;;;;;3.55;0.43;;;;;;;4.70;100.00;97979.47;5041452;28;20040;-80
2023/01/09 01:36:09;;;;;;;2.90;0.43;;;;;;;4.74;100.00;97979.97;5034836;28;20096;-82
2023/01/09 01:38:35;;;;;;;10.40;0.73;;;;;;;4.71;100.00;97984.56;5069480;28;20028;-82
2023/01/09 01:41:02;;;;;;;2.28;0.40;;;;;;;4.76;100.00;98004.97;5034869;28;20048;-80
2023/01/09 01:43:58;;;;;;;1.45;0.20;;;;;;;4.83;100.00;98005.97;5066984;28;20051;-80
2023/01/09 01:46:26;;;;;;;5.43;0.60;;;;;;;4.85;100.00;98013.66;5041474;28;20082;-81
2023/01/09 01:49:04;;;;;;;8.48;0.60;;;;;;;4.89;100.00;98019.38;5046956;28;20083;-81
2023/01/09 01:51:36;;;;;;;3.95;0.30;;;;;;;4.91;100.00;98020.81;5050435;28;20050;-80
2023/01/09 01:54:12;;;;;;;4.32;0.35;;;;;;;4.95;100.00;98027.34;5046321;28;20426;-80
2023/01/09 01:56:45;;;;;;;2.90;0.40;;;;;;;4.96;100.00;98034.25;5063576;28;20028;-80
2023/01/09 01:59:25;;;;;;;1.60;0.30;;;;;;;4.98;100.00;98041.91;5057935;23;20642;-80
2023/01/09 02:01:59;;;;;;;6.97;0.60;;;;;;;4.97;100.00;98054.19;5044502;28;20644;-80
2023/01/09 02:04:28;;;;;;;5.38;0.50;;;;;;;4.95;100.00;98058.75;5030053;28;20040;-80
2023/01/09 02:06:55;;;;;;;5.78;0.90;;;;;;;4.97;100.00;98069.06;5025255;28;20033;-80
2023/01/09 02:09:25;;;;;;;6.63;1.65;;;;;;;4.96;100.00;98078.75;5043199;28;20443;-80
2023/01/09 02:11:57;;;;;;;2.42;0.50;;;;;;;5.02;100.00;98081.66;5032062;28;20028;-80
2023/01/09 02:14:28;;;;;;;7.40;0.50;;;;;;;5.01;100.00;98098.34;5042867;28;20094;-80
2023/01/09 02:17:15;;;;;;;3.13;0.63;;;;;;;5.01;100.00;98090.50;5031376;28;20075;-80
2023/01/09 02:20:03;;;;;;;7.80;0.68;;;;;;;4.99;100.00;98105.56;5051385;28;20037;-80
2023/01/09 02:22:48;;;;;;;9.27;0.75;;;;;;;4.97;100.00;98118.81;5035175;28;20442;-80
2023/01/09 02:25:51;;;;;;;4.93;1.23;;;;;;;4.97;100.00;98131.91;5048041;28;20491;-80
2023/01/09 02:28:45;;;;;;;9.20;0.80;;;;;;;4.98;100.00;98146.66;5018915;28;20037;-80
2023/01/09 02:31:18;;;;;;;3.83;0.60;;;;;;;4.97;100.00;98152.84;5019600;28;20044;-80
2023/01/09 02:33:50;;;;;;;4.35;0.52;;;;;;;5.02;100.00;98168.06;5046626;28;20514;-80
2023/01/09 02:36:31;;;;;;;5.75;0.80;;;;;;;5.02;100.00;98161.03;5051705;28;20507;-80
2023/01/09 02:39:26;;;;;;;4.78;0.40;;;;;;;5.02;100.00;98168.88;5033097;28;20044;-82
2023/01/09 02:42:07;;;;;;;7.35;0.50;;;;;;;5.00;100.00;98165.59;5038137;28;20032;-82
2023/01/09 02:44:37;;;;;;;4.03;0.70;;;;;;;5.01;100.00;98177.72;5044456;28;20123;-82
2023/01/09 02:47:15;;;;;;;4.90;0.50;;;;;;;5.02;100.00;98184.59;5034167;28;20480;-82
2023/01/09 02:49:50;;;;;;;4.22;0.40;;;;;;;5.04;100.00;98193.13;5076770;28;20364;-82
2023/01/09 02:52:38;;;;;;;4.82;0.70;;;;;;;5.05;100.00;98207.00;5049644;28;21029;-81
2023/01/09 02:55:28;;;;;;;9.23;0.73;;;;;;;5.02;100.00;98217.81;5052933;28;20131;-82
2023/01/09 02:58:29;;;;;;;6.85;1.33;;;;;;;5.01;100.00;98231.88;5015714;28;20134;-81
2023/01/09 03:01:09;;;;;;;4.03;0.60;;;;;;;4.99;100.00;98242.53;4991959;28;20040;-80
2023/01/09 03:03:57;;;;;;;3.28;0.70;;;;;;;5.00;100.00;98244.16;5069837;28;20054;-82
2023/01/09 03:06:43;;;;;;;5.38;0.80;;;;;;;4.98;100.00;98243.50;5093457;28;20032;-81
2023/01/09 03:09:21;;;;;;;5.47;0.50;;;;;;;4.96;100.00;98241.06;5057571;28;20040;-82
2023/01/09 03:11:58;;;;;;;4.00;0.55;;;;;;;4.93;100.00;98248.41;5090412;28;20128;-82
2023/01/09 03:14:25;;;;;;;1.95;0.40;;;;;;;4.88;100.00;98253.31;5076480;28;20059;-82
2023/01/09 03:16:59;;;;;;;3.65;0.43;;;;;;;4.89;100.00;98268.06;5073592;28;20108;-81
2023/01/09 03:19:29;;;;;;;2.70;0.30;;;;;;;4.82;100.00;98263.47;5101779;28;20479;-80
2023/01/09 03:21:56;;;;;;;1.00;0.10;;;;;;;4.79;100.00;98273.44;5109716;28;20031;-80
2023/01/09 03:24:22;;;;;;;0.40;0.20;;;;;;;4.74;100.00;98266.06;5076346;28;20035;-80
2023/01/09 03:26:50;;;;;;;3.67;0.30;;;;;;;4.71;100.00;98264.56;5069187;28;20028;-80
2023/01/09 03:29:16;;;;;;;3.97;0.30;;;;;;;4.69;100.00;98274.41;5093710;27;20110;-80
2023/01/09 03:31:45;;;;;;;0.90;0.20;;;;;;;4.68;100.00;98272.75;5074608;28;20741;-80
2023/01/09 03:34:11;;;;;;;2.42;0.32;;;;;;;4.68;100.00;98285.81;5090708;28;20453;-80
2023/01/09 03:36:40;;;;;;;2.65;0.32;;;;;;;4.69;100.00;98297.13;5077526;28;20047;-80
2023/01/09 03:39:10;;;;;;;1.92;0.28;;;;;;;4.63;100.00;98301.19;5113211;28;20042;-80
2023/01/09 03:42:00;;;;;;;2.95;0.30;;;;;;;4.63;100.00;98313.47;5074779;28;20085;-80
2023/01/09 03:44:29;;;;;;;3.65;0.20;;;;;;;4.61;100.00;98313.63;5068904;28;20047;-80
2023/01/09 03:46:55;;;;;;;2.00;0.15;;;;;;;4.57;100.00;98333.25;5092590;28;20036;-80
2023/01/09 03:49:24;;;;;;;0.95;0.20;;;;;;;4.55;100.00;98338.63;5110747;28;20444;-80
2023/01/09 03:51:51;;;;;;;7.53;0.50;;;;;;;4.54;100.00;98364.94;5090333;28;20031;-80
2023/01/09 03:54:19;;;;;;;1.80;0.30;;;;;;;4.51;100.00;98363.44;5073663;28;20032;-80
2023/01/09 03:56:47;;;;;;;4.45;0.88;;;;;;;4.51;100.00;98371.28;5107428;27;20035;-80
2023/01/09 03:59:13;;;;;;;4.43;1.13;;;;;;;4.44;100.00;98373.72;5093445;28;20067;-80
2023/01/09 04:01:39;;;;;;;1.90;0.30;;;;;;;4.44;100.00;98370.28;5103041;28;20120;-80
2023/01/09 04:04:05;;;;;;;6.82;0.73;;;;;;;4.41;100.00;98378.44;5090539;28;20047;-80
2023/01/09 04:06:31;;;;;;;3.42;0.45;;;;;;;4.38;100.00;98374.34;5060706;28;20092;-80
2023/01/09 04:08:56;;;;;;;4.30;0.55;;;;;;;4.37;100.00;98375.31;5074015;28;20048;-82
2023/01/09 04:11:22;;;;;;;4.03;0.82;;;;;;;4.32;100.00;98380.19;5090271;28;20510;-82
2023/01/09 04:13:48;;;;;;;3.08;0.52;;;;;;;4.29;100.00;98390.97;5074463;28;20036;-81
2023/01/09 04:16:14;;;;;;;1.50;0.20;;;;;;;4.26;100.00;98393.88;5092037;28;20391;-82
2023/01/09 04:18:40;;;;;;;7.15;0.95;;;;;;;4.19;100.00;98412.81;5072096;28;20044;-81
2023/01/09 04:21:05;;;;;;;4.32;0.60;;;;;;;4.16;100.00;98420.97;5085246;28;20070;-81
2023/01/09 04:23:31;;;;;;;2.50;0.50;;;;;;;4.17;100.00;98432.25;5099173;28;20039;-80
2023/01/09 04:25:57;;;;;;;5.70;0.77;;;;;;;4.17;100.00;98433.06;5111912;27;20479;-80
2023/01/09 04:28:23;;;;;;;7.47;0.70;;;;;;;4.19;100.00;98436.34;5075553;28;20377;-80
2023/01/09 04:30:49;;;;;;;7.10;0.93;;;;;;;4.17;100.00;98442.72;5089971;28;20507;-80
2023/01/09 04:33:15;;;;;;;7.13;1.83;;;;;;;4.20;100.00;98451.06;5076907;28;20483;-80
2023/01/09 04:35:40;;;;;;;2.80;0.52;;;;;;;4.17;100.00;98458.41;5109761;28;20078;-80
2023/01/09 04:38:06;;;;;;;6.70;0.88;;;;;;;4.18;100.00;98467.88;5056212;27;20523;-81
2023/01/09 04:40:32;;;;;;;6.75;0.60;;;;;;;4.19;100.00;98461.66;5094865;28;20039;-81
2023/01/09 04:42:58;;;;;;;4.40;1.08;;;;;;;4.17;100.00;98461.81;5083596;28;20111;-80
2023/01/09 04:45:24;;;;;;;6.88;0.60;;;;;;;4.17;100.00;98469.66;5096576;28;20140;-80
2023/01/09 04:47:49;;;;;;;11.68;1.08;;;;;;;4.16;100.00;98475.03;5109393;28;20074;-80
2023/01/09 04:50:15;;;;;;;4.43;0.82;;;;;;;4.14;100.00;98482.25;5106423;28;20043;-80
2023/01/09 04:52:41;;;;;;;7.78;1.00;;;;;;;4.14;100.00;98483.03;5089994;27;20050;-81
2023/01/09 04:55:08;;;;;;;7.70;0.93;;;;;;;4.14;100.00;98487.47;5080016;28;20505;-80
2023/01/09 04:57:38;;;;;;;11.40;2.38;;;;;;;4.19;100.00;98495.66;5078842;28;20032;-80
2023/01/09 05:00:11;;;;;;;5.72;0.93;;;;;;;4.22;100.00;98496.19;5107713;27;20046;-80
2023/01/09 05:02:38;;;;;;;6.70;1.08;;;;;;;4.18;100.00;98494.03;5077075;27;20063;-80
2023/01/09 05:05:05;;;;;;;9.35;1.20;;;;;;;4.17;100.00;98500.25;5072172;27;20037;-81
2023/01/09 05:07:38;;;;;;;8.00;1.33;;;;;;;4.19;100.00;98498.28;5086874;28;20094;-82
2023/01/09 05:10:05;;;;;;;11.80;1.48;;;;;;;4.16;100.00;98509.03;5075426;28;20035;-80
2023/01/09 05:12:36;;;;;;;12.23;2.65;;;;;;;4.14;100.00;98511.00;5079936;28;20393;-80
2023/01/09 05:15:03;;;;;;;16.35;3.13;;;;;;;4.13;100.00;98517.19;5077749;28;20080;-80
2023/01/09 05:17:29;;;;;;;8.75;1.33;;;;;;;4.07;100.00;98522.06;5092600;28;20440;-80
2023/01/09 05:20:00;;;;;;;7.82;1.20;;;;;;;4.07;100.00;98523.84;5110118;28;20032;-82
2023/01/09 05:22:30;;;;;;;13.63;1.33;;;;;;;4.03;100.00;98530.34;5078338;28;20447;-82
2023/01/09 05:24:56;;;;;;;11.32;1.35;;;;;;;4.04;100.00;98535.44;5094346;28;20028;-82
2023/01/09 05:27:21;;;;;;;14.30;1.50;;;;;;;4.06;100.00;98543.94;5091822;28;20031;-82
2023/01/09 05:29:47;;;;;;;11.20;1.90;;;;;;;4.06;100.00;98541.31;5074900;28;20031;-80
2023/01/09 05:32:14;;;;;;;9.60;1.60;;;;;;;4.08;100.00;98552.47;5055049;28;20043;-80
2023/01/09 05:34:40;;;;;;;9.10;1.83;;;;;;;4.08;100.00;98556.84;5097812;28;20574;-80
2023/01/09 05:37:06;;;;;;;7.35;1.23;;;;;;;4.05;100.00;98551.94;5058508;28;20530;-80
2023/01/09 05:39:32;;;;;;;16.85;1.95;;;;;;;4.04;100.00;98558.97;5092781;28;20172;-82
2023/01/09 05:42:08;;;;;;;17.88;4.63;;;;;;;4.08;100.00;98568.16;5089408;28;20112;-82
2023/01/09 05:44:35;;;;;;;16.83;3.03;;;;;;;4.05;100.00;98571.06;5093298;28;20035;-81
2023/01/09 05:47:02;;;;;;;12.73;2.00;;;;;;;4.02;100.00;98578.38;5071881;28;20055;-82
2023/01/09 05:49:28;;;;;;;17.58;2.30;;;;;;;4.01;100.00;98582.78;5065319;22;20079;-80
2023/01/09 05:51:54;;;;;;;17.55;3.92;;;;;;;4.02;100.00;98575.75;5002359;28;20480;-80
2023/01/09 05:54:24;;;;;;;12.82;2.65;;;;;;;4.07;100.00;98586.59;5033622;28;20488;-80
2023/01/09 05:56:49;;;;;;;18.45;3.20;;;;;;;4.07;100.00;98595.28;5041002;28;20112;-80
2023/01/09 05:59:15;;;;;;;19.75;3.00;;;;;;;4.06;100.00;98598.03;5052861;28;20135;-80
2023/01/09 06:01:44;;;;;;;11.50;2.15;;;;;;;4.07;100.00;98613.56;5040547;28;20068;-80
2023/01/09 06:04:10;;;;;;;20.90;2.58;;;;;;;4.09;100.00;98614.22;5042963;28;20496;-80
2023/01/09 06:06:36;;;;;;;15.65;2.90;;;;;;;4.15;100.00;98619.84;5028851;28;20032;-80
2023/01/09 06:09:03;;;;;;;16.90;2.80;;;;;;;4.21;100.00;98637.56;5031607;28;20506;-80
2023/01/09 06:11:28;;;;;;;23.83;3.13;;;;;;;4.25;100.00;98638.91;5046871;28;20470;-80
2023/01/09 06:13:54;;;;;;;18.65;2.42;;;;;;;4.25;100.00;98643.31;5030125;28;20067;-80
2023/01/09 06:16:20;;;;;;;14.98;2.47;;;;;;;4.29;100.00;98644.66;5021255;28;20043;-80
2023/01/09 06:18:46;;;;;;;14.85;2.65;;;;;;;4.29;100.00;98648.09;5029200;28;20086;-80
2023/01/09 06:21:12;;;;;;;17.45;2.40;;;;;;;4.30;100.00;98649.75;5024105;28;20044;-79
2023/01/09 06:23:38;;;;;;;11.90;2.08;;;;;;;4.30;100.00;98652.34;5047480;28;20423;-81
2023/01/09 06:26:04;;;;;;;11.30;2.33;;;;;;;4.30;100.00;98652.34;5046648;28;20047;-81
2023/01/09 06:28:29;;;;;;;16.42;1.85;;;;;;;4.29;100.00;98655.13;5064848;28;20036;-81
2023/01/09 06:30:55;;;;;;;16.88;2.00;;;;;;;4.27;100.00;98670.97;5013056;28;20083;-81
2023/01/09 06:33:21;;;;;;;12.63;2.58;;;;;;;4.27;100.00;98675.38;5034191;28;20040;-81
2023/01/09 06:35:48;;;;;;;15.30;2.38;;;;;;;4.27;100.00;98681.41;5033276;28;20048;-81
2023/01/09 06:38:14;;;;;;;15.35;2.03;;;;;;;4.20;100.00;98686.41;5045114;28;20036;-81
2023/01/09 06:40:40;;;;;;;10.52;1.08;;;;;;;4.19;100.00;98678.72;5045588;28;20040;-81
2023/01/09 06:43:07;;;;;;;14.82;2.20;;;;;;;4.14;100.00;98688.81;5043504;28;20039;-81
2023/01/09 06:45:33;;;;;;;21.35;2.10;;;;;;;4.10;100.00;98693.50;5027440;28;20040;-81
2023/01/09 06:47:58;;;;;;;12.52;1.88;;;;;;;4.09;100.00;98699.72;5027697;28;20083;-81
2023/01/09 06:50:24;;;;;;;10.70;1.33;;;;;;;4.07;100.00;98701.63;5026597;28;20049;-80
2023/01/09 06:52:50;;;;;;;11.98;2.47;;;;;;;3.99;100.00;98712.81;5027244;28;20492;-81
2023/01/09 06:55:16;;;;;;;17.80;2.00;;;;;;;3.94;100.00;98720.25;5045055;28;20029;-80
2023/01/09 06:57:42;;;;;;;14.52;1.88;;;;;;;3.86;100.00;98726.22;5042250;28;20350;-81
2023/01/09 07:00:09;;;;;;;13.73;2.85;;;;;;;3.82;100.00;98727.47;5032488;28;20122;-80
2023/01/09 07:02:34;;;;;;;16.63;2.78;;;;;;;3.74;100.00;98722.97;5066009;28;20031;-80
2023/01/09 07:05:01;;;;;;;14.38;2.30;;;;;;;3.73;100.00;98734.38;5048052;28;20036;-80
2023/01/09 07:07:27;;;;;;;17.58;1.73;;;;;;;3.74;100.00;98745.66;5048866;28;20040;-80
2023/01/09 07:09:53;;;;;;;8.18;1.13;;;;;;;3.71;100.00;98752.81;4964741;28;20114;-81
2023/01/09 07:12:19;;;;;;;15.25;2.17;;;;;;;3.69;100.00;98756.53;5066371;28;20045;-80
2023/01/09 07:14:45;;;;;;;16.52;2.22;;;;;;;3.70;100.00;98766.00;5048004;28;20033;-80
2023/01/09 07:17:12;;;;;;;13.13;2.90;;;;;;;3.69;100.00;98761.75;5048901;28;20032;-79
2023/01/09 07:19:38;;;;;;;15.45;2.03;;;;;;;3.65;100.00;98771.66;5017310;28;20040;-81
2023/01/09 07:22:04;;;;;;;16.13;3.55;;;;;;;3.65;100.00;98773.44;5034085;28;20124;-81
2023/01/09 07:24:29;;;;;;;20.92;2.35;;;;;;;3.64;100.00;98780.47;5068572;28;20036;-81
2023/01/09 07:26:55;;;;;;;20.83;2.83;;;;;;;3.64;100.00;98782.25;5050561;28;20024;-81
2023/01/09 07:29:21;;;;;;;21.42;2.90;;;;;;;3.62;100.00;98785.00;5034435;28;20036;-80
2023/01/09 07:31:47;;;;;;;26.35;3.47;;;;;;;3.56;100.00;98789.03;5032677;28;20593;-81
2023/01/09 07:34:12;;;;;;;15.90;2.95;;;;;;;3.55;100.00;98795.19;5017291;28;20036;-81
2023/01/09 07:36:38;;;;;;;26.17;2.72;;;;;;;3.54;100.00;98808.38;5033235;28;20127;-81
2023/01/09 07:39:04;;;;;;;18.02;2.67;;;;;;;3.54;100.00;98804.00;5066882;28;20037;-81
2023/01/09 07:41:30;;;;;;;15.50;2.72;;;;;;;3.54;100.00;98805.78;5050790;28;20585;-81
2023/01/09 07:43:56;;;;;;;12.75;2.30;;;;;;;3.55;100.00;98807.44;5034021;28;20120;-81
2023/01/09 07:46:22;;;;;;;16.70;2.55;;;;;;;3.55;100.00;98815.28;5048542;28;20056;-81
2023/01/09 07:48:47;;;;;;;14.45;2.70;;;;;;;3.57;100.00;98826.41;5045167;28;20050;-79
2023/01/09 07:51:13;;;;;;;19.77;3.10;;;;;;;3.62;100.00;98836.44;5042688;28;20032;-81
2023/01/09 07:53:39;;;;;;;21.02;3.13;;;;;;;3.60;100.00;98837.41;5043545;28;20432;-81
2023/01/09 07:56:05;;;;;;;15.05;2.80;;;;;;;3.62;100.00;98839.88;5030771;28;20373;-81
2023/01/09 07:58:31;;;;;;;20.05;2.03;;;;;;;3.64;100.00;98834.50;5034169;28;20427;-80
2023/01/09 08:00:57;;;;;;;18.88;2.55;;;;;;;3.65;100.00;98844.81;5031628;28;20132;-81
2023/01/09 08:03:22;;;;;;;13.98;1.73;;;;;;;3.66;100.00;98848.28;5036210;28;20139;-81
2023/01/09 08:05:48;;;;;;;11.07;2.33;;;;;;;3.69;100.00;98851.44;5023470;28;20028;-81
2023/01/09 08:08:14;;;;;;;10.73;1.88;;;;;;;3.69;100.00;98861.91;5044300;28;20539;-81
2023/01/09 08:10:40;;;;;;;10.13;1.65;;;;;;;3.69;100.00;98869.75;5039942;28;20408;-80
2023/01/09 08:13:06;;;;;;;14.93;2.38;;;;;;;3.67;100.00;98876.03;5044916;28;20121;-80
2023/01/09 08:15:32;;;;;;;12.82;2.25;;;;;;;3.68;100.00;98882.94;5048821;28;20032;-80
2023/01/09 08:17:58;;;;;;;21.70;2.60;;;;;;;3.66;100.00;98893.53;5032486;28;20043;-81
2023/01/09 08:20:24;;;;;;;11.75;1.88;;;;;;;3.67;100.00;98903.00;5045489;28;20032;-81
2023/01/09 08:22:50;;;;;;;20.35;2.28;;;;;;;3.68;100.00;98893.41;5049364;28;21360;-81
2023/01/09 08:25:17;;;;;;;27.00;2.83;;;;;;;3.71;100.00;98911.41;5048555;28;20109;-80
2023/01/09 08:27:43;;;;;;;11.27;2.33;;;;;;;3.75;100.00;98911.94;5033257;28;20483;-81
2023/01/09 08:30:09;;;;;;;17.75;2.50;;;;;;;3.75;100.00;98910.16;5032280;28;20120;-81
2023/01/09 08:32:36;;;;;;;14.65;2.13;;;;;;;3.78;100.00;98920.34;5043385;28;20657;-81
2023/01/09 08:35:03;;;;;;;17.48;2.00;;;;;;;3.78;100.00;98919.50;5045299;28;20036;-80
2023/01/09 08:37:28;;;;;;;6.55;1.17;;;;;;;3.75;100.00;98920.59;5047174;28;20032;-80
2023/01/09 08:39:55;;;;;;;11.15;1.27;;;;;;;3.79;100.00;98937.66;5061696;28;20408;-81
2023/01/09 08:47:51;;;;;;;2.58;0.57;;;;;;;3.78;100.00;98961.31;5061585;28;20133;-80
2023/01/09 08:50:17;;;;;;;5.32;1.20;;;;;;;3.81;100.00;98966.28;5028141;28;20052;-79
2023/01/09 08:52:42;;;;;;;7.20;1.20;;;;;;;3.81;100.00;98976.72;5065178;28;20479;-81
2023/01/09 08:55:08;;;;;;;8.20;0.80;;;;;;;3.82;100.00;98968.75;5066206;28;20108;-80
2023/01/09 08:57:34;;;;;;;4.35;0.80;;;;;;;3.80;100.00;98975.09;5016210;28;20035;-81
2023/01/09 09:00:01;;;;;;;11.13;2.83;;;;;;;3.83;100.00;98982.66;5021226;28;20396;-81
2023/01/09 09:02:27;;;;;;;6.95;1.83;;;;;;;3.83;100.00;98993.09;5047376;28;20137;-81
2023/01/09 09:04:53;;;;;;;7.03;0.93;;;;;;;3.85;100.00;99005.06;5048257;28;20472;-81
2023/01/09 09:07:25;;;;;;;9.00;1.23;;;;;;;3.86;100.00;99003.28;5044923;28;20107;-81
2023/01/09 09:09:54;;;;;;;7.05;1.17;;;;;;;3.91;100.00;99006.31;5042232;28;20593;-81
2023/01/09 09:12:21;;;;;;;9.73;2.13;;;;;;;3.91;100.00;99011.56;5032460;28;20035;-81
2023/01/09 09:17:32;;;;;;;6.50;0.90;;;;;;;4.00;100.00;99043.88;5029000;28;20037;-81
2023/01/09 09:19:59;;;;;;;9.07;1.05;;;;;;;4.03;100.00;99041.00;5046821;28;20089;-80
2023/01/09 09:22:25;;;;;;;12.82;2.42;;;;;;;4.06;100.00;99050.38;5064683;28;20037;-80
2023/01/09 09:24:51;;;;;;;11.57;1.50;;;;;;;4.07;100.00;99052.84;5044885;28;20033;-81
2023/01/09 09:27:17;;;;;;;6.47;1.63;;;;;;;4.08;100.00;99057.09;5048673;28;20024;-81
2023/01/09 09:29:44;;;;;;;10.10;1.52;;;;;;;4.13;100.00;99064.53;5049026;28;20063;-81
2023/01/09 09:32:10;;;;;;;10.18;2.55;;;;;;;4.16;100.00;99068.66;5019229;28;20487;-81
2023/01/09 09:34:36;;;;;;;12.48;1.98;;;;;;;4.21;100.00;99069.06;5046402;28;20121;-78
2023/01/09 09:37:01;;;;;;;11.38;1.52;;;;;;;4.29;100.00;99073.63;5066734;28;20133;-79
2023/01/09 09:39:27;;;;;;;13.35;2.40;;;;;;;4.36;100.00;99073.91;5045387;28;20127;-79
2023/01/09 09:45:10;;;;;;;10.73;2.25;;;;;;;4.46;100.00;99101.72;5047143;28;20035;-79
2023/01/09 09:47:56;;;;;;;10.25;1.13;;;;;;;4.38;100.00;99111.22;5046382;28;20029;-79
2023/01/09 09:50:38;;;;;;;11.68;1.70;;;;;;;4.39;100.00;99095.38;5028333;28;20823;-79
2023/01/09 09:53:07;;;;;;;11.55;1.60;;;;;;;4.30;100.00;99101.44;5046391;28;20021;-79
2023/01/09 09:55:37;;;;;;;12.48;1.85;;;;;;;4.25;100.00;99108.88;5032706;28;20060;-79
2023/01/09 09:58:27;;;;;;;15.25;1.63;;;;;;;4.26;100.00;99123.59;5015316;28;20033;-79
2023/01/09 10:00:54;;;;;;;9.88;1.40;;;;;;;4.23;100.00;99129.94;5022039;28;20042;-79
2023/01/09 10:03:43;;;;;;;13.43;2.20;;;;;;;4.27;100.00;99133.13;5009138;28;20036;-79
2023/01/09 10:06:17;;;;;;;9.20;2.17;;;;;;;4.28;100.00;99129.53;5009388;28;20036;-79
2023/01/09 10:09:05;;;;;;;22.83;2.70;;;;;;;4.27;100.00;99135.72;5029516;28;20045;-79
2023/01/09 10:11:52;;;;;;;10.93;1.80;;;;;;;4.22;100.00;99123.06;5048928;28;20029;-79
2023/01/09 10:14:18;;;;;;;11.77;1.73;;;;;;;4.15;100.00;99129.78;5011671;28;20033;-79
2023/01/09 10:17:11;;;;;;;11.43;1.60;;;;;;;4.21;100.00;99145.75;5047414;28;20048;-79
2023/01/09 10:20:29;;;;;;;15.63;1.90;;;;;;;4.20;100.00;99149.31;4989612;28;20474;-79
2023/01/09 10:23:13;;;;;;;11.95;2.15;;;;;;;4.26;100.00;99147.13;4995044;28;20037;-79
2023/01/09 10:25:56;;;;;;;12.52;2.33;;;;;;;4.31;100.00;99137.09;5052333;28;20117;-79
2023/01/09 10:28:28;;;;;;;15.10;1.98;;;;;;;4.34;100.00;99140.28;5044993;28;20124;-79
2023/01/09 10:31:26;;;;;;;8.73;1.70;;;;;;;4.37;100.00;99147.00;5014514;28;20036;-79
2023/01/09 10:34:14;;;;;;;10.27;1.88;;;;;;;4.40;100.00;99156.38;5010638;28;20048;-79
2023/01/09 10:37:08;;;;;;;20.58;2.25;;;;;;;4.44;100.00;99163.81;5030863;28;20044;-79
2023/01/09 10:39:35;;;;;;;11.55;1.25;;;;;;;4.48;100.00;99156.53;4996772;28;20111;-79
2023/01/09 10:42:15;;;;;;;8.85;1.50;;;;;;;4.53;100.00;99170.03;5028701;28;20036;-79
2023/01/09 10:45:01;;;;;;;3.80;0.70;;;;;;;4.52;100.00;99168.38;5028216;28;20385;-79
2023/01/09 10:47:38;;;;;;;8.00;1.30;;;;;;;4.51;100.00;99164.09;5045664;28;20029;-78
2023/01/09 10:50:26;;;;;;;9.20;1.45;;;;;;;4.52;100.00;99172.78;5064117;28;20458;-79
2023/01/09 10:52:55;;;;;;;12.10;1.38;;;;;;;4.54;100.00;99181.34;5065802;28;20039;-79
2023/01/09 10:55:38;;;;;;;10.70;1.17;;;;;;;4.59;100.00;99189.59;5047678;28;20036;-79
2023/01/09 10:58:12;;;;;;;12.70;1.70;;;;;;;4.62;100.00;99184.06;5034575;28;20094;-79
2023/01/09 11:00:39;;;;;;;6.90;1.33;;;;;;;4.64;100.00;99184.78;5018891;28;20053;-79
2023/01/09 11:03:11;;;;;;;14.80;1.52;;;;;;;4.72;100.00;99197.16;4995424;28;20034;-79
2023/01/09 11:05:36;;;;;;;15.05;2.72;;;;;;;4.75;100.00;99196.06;5011158;28;20029;-79
2023/01/09 11:08:10;;;;;;;8.85;1.85;;;;;;;4.87;100.00;99202.00;5005187;28;20044;-79
2023/01/09 11:10:43;;;;;;;16.17;3.08;;;;;;;4.91;100.00;99200.75;5010621;28;20040;-79
2023/01/09 11:13:18;;;;;;;13.35;1.73;;;;;;;4.95;100.00;99207.38;4992650;28;20060;-79
2023/01/09 11:15:44;;;;;;;15.38;2.05;;;;;;;4.98;100.00;99207.09;5018171;28;20067;-79
2023/01/09 11:18:23;;;;;;;16.27;2.67;;;;;;;5.10;100.00;99218.25;4973225;28;20290;-79
2023/01/09 11:20:50;;;;;;;20.60;2.75;;;;;;;5.11;100.00;99219.91;4992275;28;20042;-79
2023/01/09 11:23:32;;;;;;;13.32;2.05;;;;;;;5.18;100.00;99231.47;5010310;28;20033;-79
2023/01/09 11:26:01;;;;;;;19.33;3.20;;;;;;;5.22;100.00;99219.75;5025994;28;20025;-79
2023/01/09 11:28:27;;;;;;;14.75;2.03;;;;;;;5.26;100.00;99233.41;5027948;28;20029;-79
2023/01/09 11:31:00;;;;;;;14.90;2.22;;;;;;;5.37;100.00;99223.75;5007127;28;20389;-79
2023/01/09 11:33:35;;;;;;;15.65;2.92;;;;;;;5.45;100.00;99227.31;4990953;28;20068;-79
2023/01/09 11:36:14;;;;;;;15.15;2.65;;;;;;;5.52;100.00;99214.47;4994436;28;20537;-79
2023/01/09 11:38:53;;;;;;;18.98;2.95;;;;;;;5.55;100.00;99216.81;5007852;28;20044;-79
2023/01/09 11:41:22;;;;;;;19.77;2.60;;;;;;;5.57;100.00;99220.09;5020930;28;20048;-80
2023/01/09 11:43:55;;;;;;;24.63;2.50;;;;;;;5.62;100.00;99217.06;4993360;28;20176;-79
2023/01/09 11:46:32;;;;;;;15.95;3.58;;;;;;;5.68;100.00;99219.13;5009865;28;20152;-79
2023/01/09 11:49:01;;;;;;;23.27;3.08;;;;;;;5.68;100.00;99210.41;4997477;28;20103;-79
2023/01/09 11:51:32;;;;;;;9.80;2.20;;;;;;;5.73;100.00;99231.78;4995671;28;20768;-79
2023/01/09 11:54:13;;;;;;;18.02;2.42;;;;;;;5.77;100.00;99235.78;5022917;28;20586;-79
2023/01/09 11:56:40;;;;;;;19.05;3.08;;;;;;;5.78;100.00;99232.16;5001461;28;20479;-79
2023/01/09 11:59:18;;;;;;;17.13;3.42;;;;;;;5.86;100.00;99238.50;4992719;28;20111;-79